sensor_id;sensor_type;location;lat;lon;timestamp;P1;durP1;ratioP1;P2;durP2;ratioP2
27863;SDS011;15980;51.092;13.916;2023-08-08T00:02:01;8.23;;;3.08;;
27863;SDS011;15980;51.092;13.916;2023-08-08T00:12:02;13.75;;;2.90;;
27863;SDS011;15980;51.092;13.916;2023-08-08T00:22:02;5.43;;;2.58;;
27863;SDS011;15980;51.092;13.916;2023-08-08T00:32:03;9.18;;;2.65;;
27863;SDS011;15980;51.092;13.916;2023-08-08T00:42:03;9.23;;;2.85;;
27863;SDS011;15980;51.092;13.916;2023-08-08T00:52:04;5.82;;;2.25;;
27863;SDS011;15980;51.092;13.916;2023-08-08T01:02:06;11.80;;;3.00;;
27863;SDS011;15980;51.092;13.916;2023-08-08T01:12:07;9.40;;;2.45;;
27863;SDS011;15980;51.092;13.916;2023-08-08T01:22:14;9.07;;;2.22;;
27863;SDS011;15980;51.092;13.916;2023-08-08T01:32:22;6.40;;;2.23;;
27863;SDS011;15980;51.092;13.916;2023-08-08T01:42:22;4.57;;;2.15;;
27863;SDS011;15980;51.092;13.916;2023-08-08T01:52:24;8.95;;;2.38;;
27863;SDS011;15980;51.092;13.916;2023-08-08T02:02:24;9.10;;;2.70;;
27863;SDS011;15980;51.092;13.916;2023-08-08T02:12:25;6.05;;;2.45;;
27863;SDS011;15980;51.092;13.916;2023-08-08T02:22:25;4.03;;;2.00;;
27863;SDS011;15980;51.092;13.916;2023-08-08T02:32:25;5.25;;;2.33;;
27863;SDS011;15980;51.092;13.916;2023-08-08T02:42:26;5.18;;;1.90;;
27863;SDS011;15980;51.092;13.916;2023-08-08T02:52:26;5.80;;;2.25;;
27863;SDS011;15980;51.092;13.916;2023-08-08T03:02:26;9.73;;;2.42;;
27863;SDS011;15980;51.092;13.916;2023-08-08T03:12:26;3.15;;;1.98;;
27863;SDS011;15980;51.092;13.916;2023-08-08T03:22:27;7.40;;;2.55;;
27863;SDS011;15980;51.092;13.916;2023-08-08T03:32:27;5.63;;;2.20;;
27863;SDS011;15980;51.092;13.916;2023-08-08T03:42:28;9.32;;;2.40;;
27863;SDS011;15980;51.092;13.916;2023-08-08T03:52:28;5.80;;;2.20;;
27863;SDS011;15980;51.092;13.916;2023-08-08T04:02:28;5.82;;;2.28;;
27863;SDS011;15980;51.092;13.916;2023-08-08T04:12:29;8.98;;;2.58;;
27863;SDS011;15980;51.092;13.916;2023-08-08T04:22:29;5.50;;;2.30;;
27863;SDS011;15980;51.092;13.916;2023-08-08T04:32:29;5.18;;;2.38;;
27863;SDS011;15980;51.092;13.916;2023-08-08T04:42:30;6.45;;;2.08;;
27863;SDS011;15980;51.092;13.916;2023-08-08T04:52:30;4.55;;;2.03;;
27863;SDS011;15980;51.092;13.916;2023-08-08T05:02:30;5.97;;;1.73;;
27863;SDS011;15980;51.092;13.916;2023-08-08T05:12:31;10.00;;;4.35;;
27863;SDS011;15980;51.092;13.916;2023-08-08T05:22:31;3.88;;;1.85;;
27863;SDS011;15980;51.092;13.916;2023-08-08T05:32:31;3.90;;;1.88;;
27863;SDS011;15980;51.092;13.916;2023-08-08T05:42:32;4.40;;;1.90;;
27863;SDS011;15980;51.092;13.916;2023-08-08T05:52:32;4.70;;;1.90;;
27863;SDS011;15980;51.092;13.916;2023-08-08T06:02:33;8.25;;;1.67;;
27863;SDS011;15980;51.092;13.916;2023-08-08T06:12:33;5.30;;;1.55;;
27863;SDS011;15980;51.092;13.916;2023-08-08T06:22:33;4.93;;;1.67;;
27863;SDS011;15980;51.092;13.916;2023-08-08T06:32:34;3.00;;;1.70;;
27863;SDS011;15980;51.092;13.916;2023-08-08T06:42:34;3.53;;;1.40;;
27863;SDS011;15980;51.092;13.916;2023-08-08T06:52:34;3.45;;;1.98;;
27863;SDS011;15980;51.092;13.916;2023-08-08T07:02:35;3.53;;;1.48;;
27863;SDS011;15980;51.092;13.916;2023-08-08T07:12:35;5.32;;;1.52;;
27863;SDS011;15980;51.092;13.916;2023-08-08T07:22:36;7.57;;;1.92;;
27863;SDS011;15980;51.092;13.916;2023-08-08T07:32:36;4.10;;;1.48;;
27863;SDS011;15980;51.092;13.916;2023-08-08T07:42:37;5.55;;;1.48;;
27863;SDS011;15980;51.092;13.916;2023-08-08T07:52:37;3.47;;;1.40;;
27863;SDS011;15980;51.092;13.916;2023-08-08T08:02:39;4.82;;;1.40;;
27863;SDS011;15980;51.092;13.916;2023-08-08T08:12:40;5.15;;;1.58;;
27863;SDS011;15980;51.092;13.916;2023-08-08T08:22:41;1.53;;;0.83;;
27863;SDS011;15980;51.092;13.916;2023-08-08T08:32:42;4.72;;;1.52;;
27863;SDS011;15980;51.092;13.916;2023-08-08T08:42:43;2.72;;;1.27;;
27863;SDS011;15980;51.092;13.916;2023-08-08T08:52:46;5.47;;;1.50;;
27863;SDS011;15980;51.092;13.916;2023-08-08T09:02:47;3.13;;;1.38;;
27863;SDS011;15980;51.092;13.916;2023-08-08T09:12:48;1.40;;;1.00;;
27863;SDS011;15980;51.092;13.916;2023-08-08T09:22:49;2.47;;;1.20;;
27863;SDS011;15980;51.092;13.916;2023-08-08T09:42:52;2.80;;;1.30;;
27863;SDS011;15980;51.092;13.916;2023-08-08T09:52:52;3.72;;;1.52;;
27863;SDS011;15980;51.092;13.916;2023-08-08T10:02:54;4.15;;;1.55;;
27863;SDS011;15980;51.092;13.916;2023-08-08T10:12:54;4.38;;;1.92;;
27863;SDS011;15980;51.092;13.916;2023-08-08T10:22:55;3.92;;;1.60;;
27863;SDS011;15980;51.092;13.916;2023-08-08T10:32:56;3.53;;;1.55;;
27863;SDS011;15980;51.092;13.916;2023-08-08T10:42:57;4.60;;;1.70;;
27863;SDS011;15980;51.092;13.916;2023-08-08T10:52:57;5.22;;;1.30;;
27863;SDS011;15980;51.092;13.916;2023-08-08T11:02:59;2.28;;;1.40;;
27863;SDS011;15980;51.092;13.916;2023-08-08T11:23:04;3.08;;;1.20;;
27863;SDS011;15980;51.092;13.916;2023-08-08T11:33:04;3.65;;;1.25;;
27863;SDS011;15980;51.092;13.916;2023-08-08T11:43:05;5.70;;;1.70;;
27863;SDS011;15980;51.092;13.916;2023-08-08T11:53:06;2.67;;;1.15;;
27863;SDS011;15980;51.092;13.916;2023-08-08T12:03:07;2.10;;;1.50;;
27863;SDS011;15980;51.092;13.916;2023-08-08T12:13:08;1.40;;;1.15;;
27863;SDS011;15980;51.092;13.916;2023-08-08T12:23:08;2.55;;;1.10;;
27863;SDS011;15980;51.092;13.916;2023-08-08T12:33:08;3.80;;;1.30;;
27863;SDS011;15980;51.092;13.916;2023-08-08T12:43:09;4.55;;;1.30;;
27863;SDS011;15980;51.092;13.916;2023-08-08T12:53:10;6.53;;;1.40;;
27863;SDS011;15980;51.092;13.916;2023-08-08T13:03:10;7.32;;;1.70;;
27863;SDS011;15980;51.092;13.916;2023-08-08T13:13:11;3.65;;;1.25;;
27863;SDS011;15980;51.092;13.916;2023-08-08T13:23:11;5.82;;;1.67;;
27863;SDS011;15980;51.092;13.916;2023-08-08T13:33:11;3.63;;;1.70;;
27863;SDS011;15980;51.092;13.916;2023-08-08T13:43:11;2.47;;;1.30;;
27863;SDS011;15980;51.092;13.916;2023-08-08T13:53:12;5.75;;;1.60;;
27863;SDS011;15980;51.092;13.916;2023-08-08T14:03:12;3.83;;;1.75;;
27863;SDS011;15980;51.092;13.916;2023-08-08T14:13:12;3.28;;;1.67;;
27863;SDS011;15980;51.092;13.916;2023-08-08T14:23:13;4.93;;;1.40;;
27863;SDS011;15980;51.092;13.916;2023-08-08T14:33:14;3.30;;;1.48;;
27863;SDS011;15980;51.092;13.916;2023-08-08T14:43:15;4.40;;;1.48;;
27863;SDS011;15980;51.092;13.916;2023-08-08T14:53:15;2.70;;;1.30;;
27863;SDS011;15980;51.092;13.916;2023-08-08T15:03:16;2.42;;;1.20;;
27863;SDS011;15980;51.092;13.916;2023-08-08T15:13:16;2.30;;;1.40;;
27863;SDS011;15980;51.092;13.916;2023-08-08T15:23:16;2.45;;;1.50;;
27863;SDS011;15980;51.092;13.916;2023-08-08T15:33:17;4.18;;;1.10;;
27863;SDS011;15980;51.092;13.916;2023-08-08T15:43:17;2.45;;;1.30;;
27863;SDS011;15980;51.092;13.916;2023-08-08T15:53:17;2.95;;;1.38;;
27863;SDS011;15980;51.092;13.916;2023-08-08T16:03:18;4.07;;;1.60;;
27863;SDS011;15980;51.092;13.916;2023-08-08T16:13:18;6.75;;;1.40;;
27863;SDS011;15980;51.092;13.916;2023-08-08T16:23:18;3.38;;;1.20;;
27863;SDS011;15980;51.092;13.916;2023-08-08T16:33:19;6.90;;;1.73;;
27863;SDS011;15980;51.092;13.916;2023-08-08T16:43:19;3.25;;;1.98;;
27863;SDS011;15980;51.092;13.916;2023-08-08T16:53:19;3.80;;;1.40;;
27863;SDS011;15980;51.092;13.916;2023-08-08T17:03:20;3.65;;;1.20;;
27863;SDS011;15980;51.092;13.916;2023-08-08T17:13:20;4.38;;;1.50;;
27863;SDS011;15980;51.092;13.916;2023-08-08T17:23:20;3.08;;;1.23;;
27863;SDS011;15980;51.092;13.916;2023-08-08T17:33:21;4.82;;;1.63;;
27863;SDS011;15980;51.092;13.916;2023-08-08T17:43:21;2.50;;;1.30;;
27863;SDS011;15980;51.092;13.916;2023-08-08T17:53:21;4.30;;;1.30;;
27863;SDS011;15980;51.092;13.916;2023-08-08T18:03:29;3.10;;;1.20;;
27863;SDS011;15980;51.092;13.916;2023-08-08T18:13:29;4.22;;;1.70;;
27863;SDS011;15980;51.092;13.916;2023-08-08T18:23:29;3.63;;;1.70;;
27863;SDS011;15980;51.092;13.916;2023-08-08T18:33:30;5.22;;;2.03;;
27863;SDS011;15980;51.092;13.916;2023-08-08T18:43:30;3.72;;;1.88;;
27863;SDS011;15980;51.092;13.916;2023-08-08T18:53:30;4.95;;;1.80;;
27863;SDS011;15980;51.092;13.916;2023-08-08T19:03:31;4.32;;;2.25;;
27863;SDS011;15980;51.092;13.916;2023-08-08T19:13:31;2.65;;;2.05;;
27863;SDS011;15980;51.092;13.916;2023-08-08T19:23:31;5.20;;;1.70;;
27863;SDS011;15980;51.092;13.916;2023-08-08T19:33:32;6.20;;;2.05;;
27863;SDS011;15980;51.092;13.916;2023-08-08T19:43:32;4.88;;;1.80;;
27863;SDS011;15980;51.092;13.916;2023-08-08T19:53:32;2.72;;;1.52;;
27863;SDS011;15980;51.092;13.916;2023-08-08T20:03:32;3.05;;;1.90;;
27863;SDS011;15980;51.092;13.916;2023-08-08T20:13:33;3.35;;;2.15;;
27863;SDS011;15980;51.092;13.916;2023-08-08T20:23:34;4.80;;;2.00;;
27863;SDS011;15980;51.092;13.916;2023-08-08T20:33:35;4.35;;;1.98;;
27863;SDS011;15980;51.092;13.916;2023-08-08T20:43:35;4.55;;;2.03;;
27863;SDS011;15980;51.092;13.916;2023-08-08T20:53:35;4.47;;;2.05;;
27863;SDS011;15980;51.092;13.916;2023-08-08T21:03:35;4.80;;;1.85;;
27863;SDS011;15980;51.092;13.916;2023-08-08T21:13:36;6.53;;;2.15;;
27863;SDS011;15980;51.092;13.916;2023-08-08T21:23:36;4.88;;;2.10;;
27863;SDS011;15980;51.092;13.916;2023-08-08T21:33:36;4.70;;;1.63;;
27863;SDS011;15980;51.092;13.916;2023-08-08T21:43:36;2.63;;;2.00;;
27863;SDS011;15980;51.092;13.916;2023-08-08T21:53:37;7.20;;;2.08;;
27863;SDS011;15980;51.092;13.916;2023-08-08T22:03:37;4.10;;;1.80;;
27863;SDS011;15980;51.092;13.916;2023-08-08T22:13:37;5.13;;;1.70;;
27863;SDS011;15980;51.092;13.916;2023-08-08T22:23:38;3.55;;;1.58;;
27863;SDS011;15980;51.092;13.916;2023-08-08T22:33:38;4.75;;;1.67;;
27863;SDS011;15980;51.092;13.916;2023-08-08T22:43:38;4.03;;;1.92;;
27863;SDS011;15980;51.092;13.916;2023-08-08T22:53:38;7.55;;;2.03;;
27863;SDS011;15980;51.092;13.916;2023-08-08T23:03:39;2.63;;;1.85;;
27863;SDS011;15980;51.092;13.916;2023-08-08T23:13:39;5.15;;;1.85;;
27863;SDS011;15980;51.092;13.916;2023-08-08T23:23:39;5.93;;;2.35;;
27863;SDS011;15980;51.092;13.916;2023-08-08T23:33:39;3.08;;;1.50;;
27863;SDS011;15980;51.092;13.916;2023-08-08T23:43:40;5.22;;;1.80;;
27863;SDS011;15980;51.092;13.916;2023-08-08T23:53:40;6.20;;;2.58;;
